createdAt,value
2023-02-26T00:02:03.937Z,3.75
2023-02-26T00:04:31.243Z,3.65
2023-02-26T00:06:59.616Z,3.68
2023-02-26T00:09:28.396Z,3.60
2023-02-26T00:11:57.970Z,3.82
2023-02-26T00:14:25.304Z,3.72
2023-02-26T00:17:12.744Z,3.87
2023-02-26T00:19:40.936Z,3.70
2023-02-26T00:22:08.881Z,3.57
2023-02-26T00:24:42.831Z,3.32
2023-02-26T00:27:11.473Z,3.47
2023-02-26T00:29:39.030Z,3.46
2023-02-26T00:32:12.585Z,3.66
2023-02-26T00:34:41.027Z,3.84
2023-02-26T00:37:17.198Z,3.85
2023-02-26T00:39:47.545Z,3.93
2023-02-26T00:42:16.671Z,3.87
2023-02-26T00:44:43.842Z,4.18
2023-02-26T00:47:19.216Z,4.17
2023-02-26T00:49:51.509Z,4.69
2023-02-26T00:52:29.211Z,4.26
2023-02-26T00:54:56.392Z,4.32
2023-02-26T00:57:23.706Z,4.38
2023-02-26T00:59:51.882Z,4.30
2023-02-26T01:02:21.762Z,3.79
2023-02-26T01:04:52.183Z,4.02
2023-02-26T01:07:24.095Z,4.59
2023-02-26T01:09:51.150Z,4.39
2023-02-26T01:12:18.053Z,3.77
2023-02-26T01:14:46.298Z,4.06
2023-02-26T01:17:13.253Z,4.23
2023-02-26T01:19:42.940Z,4.27
2023-02-26T01:22:20.269Z,4.18
2023-02-26T01:24:48.916Z,5.05
2023-02-26T01:27:16.359Z,5.00
2023-02-26T01:29:43.970Z,4.27
2023-02-26T01:32:42.645Z,4.35
2023-02-26T01:35:28.308Z,4.58
2023-02-26T01:38:14.212Z,4.69
2023-02-26T01:41:04.199Z,4.69
2023-02-26T01:44:07.081Z,4.60
2023-02-26T01:46:34.732Z,5.13
2023-02-26T01:49:01.945Z,4.91
2023-02-26T01:51:45.850Z,4.51
2023-02-26T01:54:13.415Z,5.01
2023-02-26T01:56:41.113Z,5.20
2023-02-26T01:59:09.978Z,5.10
2023-02-26T02:01:37.466Z,4.74
2023-02-26T02:04:14.251Z,4.97
2023-02-26T02:06:41.053Z,5.41
2023-02-26T02:09:10.883Z,5.92
2023-02-26T02:11:58.964Z,6.33
2023-02-26T02:14:31.737Z,6.50
2023-02-26T02:17:13.518Z,6.68
2023-02-26T02:19:55.398Z,6.55
2023-02-26T02:22:32.518Z,5.93
2023-02-26T02:25:31.583Z,5.39
2023-02-26T02:28:09.154Z,5.47
2023-02-26T02:30:55.940Z,5.27
2023-02-26T02:33:27.816Z,4.75
2023-02-26T02:36:26.414Z,5.09
2023-02-26T02:38:57.295Z,4.62
2023-02-26T02:41:30.213Z,4.86
2023-02-26T02:44:00.376Z,5.27
2023-02-26T02:46:30.206Z,5.87
2023-02-26T02:49:02.011Z,5.90
2023-02-26T02:51:32.903Z,5.53
2023-02-26T02:54:09.024Z,4.80
2023-02-26T02:56:53.906Z,4.88
2023-02-26T02:59:25.524Z,5.00
2023-02-26T03:02:21.958Z,4.93
2023-02-26T03:04:48.998Z,5.35
2023-02-26T03:07:16.046Z,5.11
2023-02-26T03:09:43.791Z,4.95
2023-02-26T03:12:10.974Z,4.67
2023-02-26T03:14:38.654Z,4.62
2023-02-26T03:17:21.879Z,4.85
2023-02-26T03:19:57.855Z,5.49
2023-02-26T03:22:40.907Z,5.38
2023-02-26T03:25:14.882Z,5.03
2023-02-26T03:27:41.504Z,5.29
2023-02-26T03:30:13.138Z,5.33
2023-02-26T03:33:18.067Z,4.80
2023-02-26T03:35:44.880Z,4.89
2023-02-26T03:38:32.241Z,4.49
2023-02-26T03:41:09.999Z,4.27
2023-02-26T03:43:40.788Z,4.00
2023-02-26T03:46:09.630Z,3.83
2023-02-26T03:48:37.159Z,3.78
2023-02-26T03:51:08.181Z,3.58
2023-02-26T03:53:46.745Z,4.28
2023-02-26T03:56:22.888Z,4.23
2023-02-26T03:58:50.468Z,4.56
2023-02-26T04:01:20.673Z,4.48
2023-02-26T04:04:03.357Z,4.49
2023-02-26T04:06:31.382Z,4.33
2023-02-26T04:08:58.017Z,3.80
2023-02-26T04:11:27.696Z,3.89
2023-02-26T04:14:12.698Z,4.06
2023-02-26T04:16:39.669Z,4.65
2023-02-26T04:19:20.006Z,4.49
2023-02-26T04:21:57.003Z,4.57
2023-02-26T04:24:24.253Z,3.58
2023-02-26T04:26:53.092Z,3.89
2023-02-26T04:29:20.087Z,4.30
2023-02-26T04:31:47.091Z,4.02
2023-02-26T04:34:22.675Z,3.23
2023-02-26T04:36:49.552Z,4.26
2023-02-26T04:39:18.434Z,3.42
2023-02-26T04:41:45.492Z,3.76
2023-02-26T04:44:12.626Z,3.91
2023-02-26T04:46:40.093Z,3.30
2023-02-26T04:49:07.694Z,3.04
2023-02-26T04:51:47.661Z,3.66
2023-02-26T04:54:15.046Z,3.75
2023-02-26T04:56:44.147Z,3.30
2023-02-26T04:59:10.937Z,3.96
2023-02-26T05:01:38.100Z,4.08
2023-02-26T05:04:10.296Z,4.58
2023-02-26T05:06:37.024Z,3.58
2023-02-26T05:09:05.329Z,4.10
2023-02-26T05:11:40.810Z,4.07
2023-02-26T05:14:08.120Z,4.31
2023-02-26T05:16:51.368Z,4.60
2023-02-26T05:19:18.179Z,4.28
2023-02-26T05:21:45.428Z,4.25
2023-02-26T05:24:12.567Z,4.25
2023-02-26T05:26:39.329Z,4.44
2023-02-26T05:29:07.314Z,4.07
2023-02-26T05:31:34.634Z,3.60
2023-02-26T05:34:02.709Z,3.82
2023-02-26T05:36:30.237Z,3.70
2023-02-26T05:38:58.505Z,4.05
2023-02-26T05:41:25.103Z,4.22
2023-02-26T05:43:52.889Z,4.34
2023-02-26T05:46:20.259Z,4.63
2023-02-26T05:48:47.814Z,3.88
2023-02-26T05:51:14.651Z,2.76
2023-02-26T05:53:47.918Z,3.75
2023-02-26T05:56:16.903Z,3.36
2023-02-26T05:58:51.908Z,3.19
2023-02-26T06:01:18.560Z,2.74
2023-02-26T06:03:46.165Z,2.87
2023-02-26T06:06:16.425Z,2.87
2023-02-26T06:08:43.510Z,3.28
2023-02-26T06:11:10.502Z,3.06
2023-02-26T06:13:37.611Z,2.97
2023-02-26T06:16:04.738Z,2.93
2023-02-26T06:18:33.506Z,3.68
2023-02-26T06:21:01.049Z,4.15
2023-02-26T06:23:28.999Z,3.93
2023-02-26T06:25:55.622Z,3.88
2023-02-26T06:28:28.559Z,3.67
2023-02-26T06:30:55.493Z,3.45
2023-02-26T06:33:27.644Z,3.86
2023-02-26T06:35:54.460Z,3.99
2023-02-26T06:38:55.953Z,3.53
2023-02-26T06:41:22.861Z,3.65
2023-02-26T06:43:49.694Z,3.81
2023-02-26T06:46:16.930Z,3.38
2023-02-26T06:48:43.439Z,3.59
2023-02-26T06:51:10.329Z,3.98
2023-02-26T06:53:36.756Z,4.50
2023-02-26T06:56:22.712Z,4.33
2023-02-26T06:58:50.669Z,3.70
2023-02-26T07:01:49.233Z,4.35
2023-02-26T07:04:15.679Z,3.52
2023-02-26T07:06:42.888Z,3.80
2023-02-26T07:09:11.854Z,3.38
2023-02-26T07:11:39.964Z,4.26
2023-02-26T07:14:06.426Z,3.58
2023-02-26T07:16:39.387Z,4.32
2023-02-26T07:19:06.425Z,4.26
2023-02-26T07:21:33.140Z,4.54
2023-02-26T07:24:22.690Z,3.92
2023-02-26T07:26:49.350Z,4.72
2023-02-26T07:29:22.194Z,4.63
2023-02-26T07:31:51.933Z,5.35
2023-02-26T07:34:26.185Z,5.36
2023-02-26T07:36:52.983Z,5.97
2023-02-26T07:39:20.195Z,4.48
2023-02-26T07:41:47.043Z,5.67
2023-02-26T07:44:21.286Z,5.29
2023-02-26T07:46:48.145Z,5.55
2023-02-26T07:49:20.399Z,4.67
2023-02-26T07:51:48.486Z,5.32
2023-02-26T07:54:15.236Z,5.41
2023-02-26T07:56:43.166Z,4.74
2023-02-26T07:59:10.052Z,5.24
2023-02-26T08:01:38.866Z,5.46
2023-02-26T08:04:06.029Z,4.96
2023-02-26T08:06:34.664Z,4.96
2023-02-26T08:09:01.597Z,5.18
2023-02-26T08:11:29.504Z,5.46
2023-02-26T08:13:56.777Z,5.13
2023-02-26T08:16:24.317Z,5.73
2023-02-26T08:18:51.093Z,4.85
2023-02-26T08:21:17.837Z,5.25
2023-02-26T08:23:46.078Z,4.85
2023-02-26T08:26:15.458Z,4.91
2023-02-26T08:28:42.803Z,4.49
2023-02-26T08:31:17.946Z,5.51
2023-02-26T08:33:45.836Z,5.09
2023-02-26T08:36:13.613Z,5.15
2023-02-26T08:38:42.046Z,4.99
2023-02-26T08:41:09.049Z,5.31
2023-02-26T08:43:36.892Z,6.22
2023-02-26T08:46:05.042Z,5.77
2023-02-26T08:48:33.047Z,5.40
2023-02-26T08:51:00.112Z,5.71
2023-02-26T08:53:29.199Z,5.46
2023-02-26T08:55:56.386Z,5.31
2023-02-26T08:58:25.806Z,6.64
2023-02-26T09:00:53.040Z,6.16
2023-02-26T09:03:21.039Z,6.29
2023-02-26T09:05:47.996Z,5.71
2023-02-26T09:08:16.081Z,6.26
2023-02-26T09:10:51.967Z,5.40
2023-02-26T09:13:20.077Z,5.68
2023-02-26T09:15:53.893Z,6.02
2023-02-26T09:18:21.100Z,5.80
2023-02-26T09:20:54.479Z,5.58
2023-02-26T09:23:21.180Z,5.26
2023-02-26T09:25:53.050Z,6.01
2023-02-26T09:28:34.718Z,5.37
2023-02-26T09:31:03.230Z,4.98
2023-02-26T09:33:31.276Z,5.76
2023-02-26T09:35:59.494Z,6.59
2023-02-26T09:38:26.590Z,6.04
2023-02-26T09:41:05.208Z,6.05
2023-02-26T09:43:53.776Z,5.49
2023-02-26T09:46:27.125Z,6.11
2023-02-26T09:49:02.294Z,7.15
2023-02-26T09:51:31.527Z,6.44
2023-02-26T09:54:16.369Z,6.80
2023-02-26T09:56:43.749Z,7.61
2023-02-26T09:59:13.397Z,6.73
2023-02-26T10:01:52.970Z,7.11
2023-02-26T10:04:43.060Z,6.46
2023-02-26T10:07:10.402Z,6.47
2023-02-26T10:09:57.109Z,6.47
2023-02-26T10:12:26.352Z,6.58
2023-02-26T10:15:00.448Z,6.75
2023-02-26T10:17:46.457Z,6.52
2023-02-26T10:20:27.622Z,6.64
2023-02-26T10:22:55.820Z,7.02
2023-02-26T10:25:24.635Z,7.28
2023-02-26T10:28:02.376Z,6.63
2023-02-26T10:30:36.727Z,6.90
2023-02-26T10:33:24.392Z,7.37
2023-02-26T10:35:55.341Z,6.45
2023-02-26T10:38:26.265Z,5.69
2023-02-26T10:41:13.639Z,6.55
2023-02-26T10:43:41.781Z,7.09
2023-02-26T10:46:28.319Z,7.03
2023-02-26T10:49:15.364Z,6.92
2023-02-26T10:51:42.966Z,6.83
2023-02-26T10:54:31.756Z,6.36
2023-02-26T10:56:58.857Z,6.33
2023-02-26T10:59:26.023Z,6.80
2023-02-26T11:02:10.574Z,6.50
2023-02-26T11:04:37.522Z,6.18
2023-02-26T11:07:06.307Z,7.03
2023-02-26T11:09:45.259Z,7.13
2023-02-26T11:12:12.944Z,7.37
2023-02-26T11:15:04.077Z,7.44
2023-02-26T11:17:32.966Z,7.85
2023-02-26T11:20:01.007Z,8.01
2023-02-26T11:22:37.263Z,6.81
2023-02-26T11:25:04.765Z,7.02
2023-02-26T11:27:34.640Z,7.77
2023-02-26T11:30:05.485Z,6.78
2023-02-26T11:32:38.383Z,7.09
2023-02-26T11:35:08.117Z,8.07
2023-02-26T11:37:39.397Z,7.68
2023-02-26T11:40:15.073Z,7.80
2023-02-26T11:42:45.281Z,7.62
2023-02-26T11:45:20.905Z,7.10
2023-02-26T11:47:49.958Z,7.32
2023-02-26T11:50:20.051Z,7.12
2023-02-26T11:52:51.184Z,7.22
2023-02-26T11:55:20.356Z,7.34
2023-02-26T11:57:54.382Z,6.95
2023-02-26T12:00:26.112Z,8.43
2023-02-26T12:02:58.014Z,7.95
2023-02-26T12:05:26.379Z,7.99
2023-02-26T12:07:53.452Z,7.38
2023-02-26T12:10:31.158Z,7.00
2023-02-26T12:13:09.007Z,7.86
2023-02-26T12:15:46.542Z,7.89
2023-02-26T12:18:15.671Z,7.47
2023-02-26T12:20:45.997Z,7.81
2023-02-26T12:23:19.520Z,6.69
2023-02-26T12:26:02.268Z,7.00
2023-02-26T12:28:48.472Z,7.21
2023-02-26T12:31:22.292Z,8.87
2023-02-26T12:34:16.455Z,8.93
2023-02-26T12:36:51.782Z,7.32
2023-02-26T12:39:26.991Z,6.96
2023-02-26T12:41:53.863Z,7.86
2023-02-26T12:44:25.234Z,7.23
2023-02-26T12:47:07.712Z,7.45
2023-02-26T12:49:47.252Z,7.40
2023-02-26T12:52:17.549Z,7.03
2023-02-26T12:54:53.751Z,7.38
2023-02-26T12:57:29.601Z,7.19
2023-02-26T13:00:00.314Z,7.87
2023-02-26T13:02:37.509Z,7.58
2023-02-26T13:05:26.290Z,7.52
2023-02-26T13:07:53.816Z,7.52
2023-02-26T13:10:28.242Z,7.83
2023-02-26T13:12:58.561Z,7.32
2023-02-26T13:15:38.329Z,7.60
2023-02-26T13:18:12.675Z,7.59
2023-02-26T13:20:43.884Z,7.31
2023-02-26T13:23:13.620Z,6.99
2023-02-26T13:25:41.803Z,6.80
2023-02-26T13:28:27.696Z,7.01
2023-02-26T13:31:24.096Z,7.35
2023-02-26T13:33:57.361Z,7.98
2023-02-26T13:36:25.549Z,8.37
2023-02-26T13:39:08.357Z,8.67
2023-02-26T13:41:58.472Z,8.83
2023-02-26T13:44:30.345Z,7.71
2023-02-26T13:47:11.051Z,7.34
2023-02-26T13:49:46.143Z,7.65
2023-02-26T13:52:27.540Z,7.56
2023-02-26T13:54:56.638Z,7.35
2023-02-26T13:57:38.818Z,8.02
2023-02-26T14:00:13.454Z,7.70
2023-02-26T14:02:51.877Z,7.31
2023-02-26T14:05:35.048Z,7.63
2023-02-26T14:08:02.621Z,8.06
2023-02-26T14:10:48.675Z,7.74
2023-02-26T14:13:21.905Z,7.07
2023-02-26T14:16:07.815Z,7.62
2023-02-26T14:18:41.124Z,7.82
2023-02-26T14:21:26.734Z,8.17
2023-02-26T14:23:59.546Z,7.54
2023-02-26T14:26:28.636Z,8.02
2023-02-26T14:29:08.593Z,8.81
2023-02-26T14:31:51.427Z,7.80
2023-02-26T14:34:26.994Z,6.87
2023-02-26T14:36:56.484Z,7.10
2023-02-26T14:39:25.860Z,7.09
2023-02-26T14:41:58.580Z,6.83
2023-02-26T14:44:37.231Z,7.33
2023-02-26T14:47:06.208Z,7.55
2023-02-26T14:49:37.119Z,7.53
2023-02-26T14:52:23.133Z,7.53
2023-02-26T14:54:59.854Z,7.45
2023-02-26T14:57:48.198Z,8.44
2023-02-26T15:00:23.147Z,8.33
2023-02-26T15:03:14.084Z,7.44
2023-02-26T15:06:01.599Z,7.19
2023-02-26T15:08:43.573Z,6.79
2023-02-26T15:14:39.346Z,7.20
2023-02-26T15:17:17.275Z,7.32
2023-02-26T15:19:47.148Z,7.36
2023-02-26T15:22:29.688Z,7.09
2023-02-26T15:25:03.353Z,6.81
2023-02-26T15:27:37.096Z,7.51
2023-02-26T15:30:04.742Z,6.99
2023-02-26T15:32:44.104Z,6.86
2023-02-26T15:35:16.603Z,7.80
2023-02-26T15:37:44.906Z,8.09
2023-02-26T15:40:17.408Z,8.08
2023-02-26T15:42:45.667Z,7.23
2023-02-26T15:45:16.725Z,7.62
2023-02-26T15:47:43.897Z,6.94
2023-02-26T15:50:15.356Z,7.31
2023-02-26T15:52:42.809Z,6.88
2023-02-26T15:55:15.140Z,7.44
2023-02-26T15:57:42.695Z,7.56
2023-02-26T16:00:16.632Z,7.12
2023-02-26T16:02:46.835Z,6.78
2023-02-26T16:05:17.031Z,6.73
2023-02-26T16:07:47.013Z,6.42
2023-02-26T16:10:21.275Z,6.38
2023-02-26T16:12:49.499Z,6.55
2023-02-26T16:15:23.241Z,6.15
2023-02-26T16:17:51.616Z,6.61
2023-02-26T16:20:23.282Z,6.64
2023-02-26T16:22:59.557Z,6.38
2023-02-26T16:26:05.291Z,6.31
2023-02-26T16:28:34.225Z,6.24
2023-02-26T16:31:04.831Z,6.27
2023-02-26T16:33:39.039Z,5.85
2023-02-26T16:36:14.731Z,6.20
2023-02-26T16:38:57.944Z,6.17
2023-02-26T16:41:26.524Z,6.17
2023-02-26T16:43:58.134Z,6.34
2023-02-26T16:46:30.814Z,6.15
2023-02-26T16:49:06.228Z,6.12
2023-02-26T16:51:37.516Z,6.23
2023-02-26T16:54:14.959Z,5.90
2023-02-26T16:56:44.436Z,6.25
2023-02-26T16:59:26.166Z,5.81
2023-02-26T17:02:05.660Z,6.17
2023-02-26T17:04:35.132Z,6.28
2023-02-26T17:07:03.662Z,6.30
2023-02-26T17:09:40.684Z,6.12
2023-02-26T17:12:43.129Z,6.46
2023-02-26T17:15:21.867Z,6.30
2023-02-26T17:17:49.758Z,7.33
2023-02-26T17:20:18.148Z,7.07
2023-02-26T17:22:46.557Z,7.81
2023-02-26T17:25:19.470Z,7.72
2023-02-26T17:27:46.895Z,8.81
2023-02-26T17:30:16.462Z,8.51
2023-02-26T17:32:47.839Z,8.35
2023-02-26T17:35:16.551Z,8.11
2023-02-26T17:37:44.499Z,8.00
2023-02-26T17:40:23.539Z,7.78
2023-02-26T17:42:52.365Z,8.08
2023-02-26T17:45:21.300Z,7.44
2023-02-26T17:47:50.283Z,6.93
2023-02-26T17:50:45.538Z,6.68
2023-02-26T17:53:13.594Z,7.77
2023-02-26T17:55:41.450Z,8.31
2023-02-26T17:58:13.859Z,8.13
2023-02-26T18:00:44.264Z,7.70
2023-02-26T18:03:22.020Z,8.26
2023-02-26T18:05:50.557Z,7.67
2023-02-26T18:08:30.804Z,7.79
2023-02-26T18:10:59.156Z,8.38
2023-02-26T18:13:29.408Z,8.33
2023-02-26T18:15:58.897Z,8.24
2023-02-26T18:18:27.025Z,8.13
2023-02-26T18:20:55.160Z,7.59
2023-02-26T18:23:24.225Z,8.14
2023-02-26T18:25:52.850Z,7.73
2023-02-26T18:28:36.906Z,7.72
2023-02-26T18:31:10.482Z,8.16
2023-02-26T18:33:41.712Z,8.19
2023-02-26T18:36:12.699Z,7.99
2023-02-26T18:38:40.360Z,7.66
2023-02-26T18:41:14.820Z,7.57
2023-02-26T18:43:46.054Z,7.68
2023-02-26T18:46:13.679Z,7.63
2023-02-26T18:48:50.973Z,7.17
2023-02-26T18:51:18.159Z,7.47
2023-02-26T18:53:45.836Z,7.18
2023-02-26T18:56:15.737Z,7.85
2023-02-26T18:58:43.930Z,6.74
2023-02-26T19:01:13.478Z,7.57
2023-02-26T19:03:40.810Z,7.74
2023-02-26T19:06:10.277Z,7.69
2023-02-26T19:08:37.231Z,7.63
2023-02-26T19:11:04.721Z,7.78
2023-02-26T19:13:31.574Z,7.65
2023-02-26T19:15:59.225Z,7.55
2023-02-26T19:18:27.322Z,7.43
2023-02-26T19:20:55.426Z,7.09
2023-02-26T19:23:24.849Z,7.24
2023-02-26T19:25:53.287Z,7.10
2023-02-26T19:28:20.380Z,7.03
2023-02-26T19:30:47.454Z,7.04
2023-02-26T19:33:14.318Z,6.73
2023-02-26T19:35:41.199Z,6.74
2023-02-26T19:38:09.117Z,6.78
2023-02-26T19:40:36.316Z,6.73
2023-02-26T19:43:02.912Z,6.12
2023-02-26T19:45:29.531Z,6.45
2023-02-26T19:47:56.676Z,6.63
2023-02-26T19:50:25.536Z,7.01
2023-02-26T19:52:52.191Z,6.82
2023-02-26T19:55:20.239Z,6.29
2023-02-26T19:57:48.389Z,6.13
2023-02-26T20:00:16.609Z,6.29
2023-02-26T20:02:43.802Z,5.83
2023-02-26T20:05:16.200Z,5.80
2023-02-26T20:07:43.106Z,6.53
2023-02-26T20:10:10.808Z,6.77
2023-02-26T20:12:37.556Z,6.71
2023-02-26T20:15:05.408Z,6.41
2023-02-26T20:17:32.429Z,7.17
2023-02-26T20:19:59.338Z,6.93
2023-02-26T20:22:26.385Z,7.29
2023-02-26T20:24:53.577Z,7.21
2023-02-26T20:27:20.523Z,6.70
2023-02-26T20:29:47.552Z,6.53
2023-02-26T20:32:16.347Z,6.76
2023-02-26T20:34:44.552Z,6.95
2023-02-26T20:37:11.346Z,6.82
2023-02-26T20:39:38.266Z,6.84
2023-02-26T20:42:05.788Z,6.45
2023-02-26T20:44:32.934Z,6.57
2023-02-26T20:47:02.974Z,6.96
2023-02-26T20:49:31.457Z,6.73
2023-02-26T20:51:58.071Z,5.97
2023-02-26T20:54:24.809Z,6.27
2023-02-26T20:56:52.244Z,6.57
2023-02-26T20:59:19.368Z,6.81
2023-02-26T21:01:51.702Z,6.78
2023-02-26T21:04:18.337Z,6.56
2023-02-26T21:06:46.014Z,6.17
2023-02-26T21:09:13.557Z,6.61
2023-02-26T21:11:41.727Z,6.16
2023-02-26T21:14:09.070Z,6.36
2023-02-26T21:16:36.287Z,6.49
2023-02-26T21:19:04.546Z,6.33
2023-02-26T21:21:32.003Z,6.61
2023-02-26T21:23:59.064Z,6.26
2023-02-26T21:26:27.477Z,6.49
2023-02-26T21:28:54.097Z,6.67
2023-02-26T21:31:21.952Z,6.71
2023-02-26T21:33:50.228Z,6.78
2023-02-26T21:36:17.169Z,6.47
2023-02-26T21:38:44.283Z,6.32
2023-02-26T21:41:11.183Z,6.32
2023-02-26T21:43:38.175Z,6.13
2023-02-26T21:46:05.171Z,5.97
2023-02-26T21:48:31.739Z,5.96
2023-02-26T21:50:59.671Z,6.19
2023-02-26T21:53:26.965Z,6.40
2023-02-26T21:55:53.745Z,6.28
2023-02-26T21:58:20.580Z,5.99
2023-02-26T22:00:47.937Z,6.40
2023-02-26T22:03:14.746Z,6.37
2023-02-26T22:05:41.294Z,6.69
2023-02-26T22:08:08.416Z,6.24
2023-02-26T22:10:35.064Z,6.21
2023-02-26T22:13:02.304Z,5.98
2023-02-26T22:15:29.132Z,6.04
2023-02-26T22:17:55.749Z,5.79
2023-02-26T22:20:22.770Z,5.81
2023-02-26T22:22:49.578Z,5.62
2023-02-26T22:25:16.169Z,5.63
2023-02-26T22:27:42.856Z,5.75
2023-02-26T22:30:11.197Z,5.55
2023-02-26T22:32:38.171Z,5.45
2023-02-26T22:35:05.465Z,5.53
2023-02-26T22:37:32.235Z,5.44
2023-02-26T22:39:59.027Z,5.45
2023-02-26T22:42:25.766Z,5.52
2023-02-26T22:44:52.577Z,5.72
2023-02-26T22:47:19.926Z,5.74
2023-02-26T22:49:46.787Z,5.29
2023-02-26T22:52:14.128Z,4.78
2023-02-26T22:54:41.315Z,4.74
2023-02-26T22:57:08.802Z,4.97
2023-02-26T22:59:35.585Z,5.26
2023-02-26T23:02:03.741Z,5.08
2023-02-26T23:04:30.618Z,4.91
2023-02-26T23:06:57.327Z,5.13
2023-02-26T23:09:24.123Z,4.99
2023-02-26T23:11:52.219Z,5.62
2023-02-26T23:14:19.284Z,5.72
2023-02-26T23:16:47.027Z,5.36
2023-02-26T23:19:14.250Z,5.17
2023-02-26T23:21:41.078Z,4.92
2023-02-26T23:24:07.924Z,4.96
2023-02-26T23:26:34.832Z,5.19
2023-02-26T23:29:01.799Z,5.00
2023-02-26T23:31:28.727Z,4.33
2023-02-26T23:33:55.710Z,4.46
2023-02-26T23:36:22.344Z,4.05
2023-02-26T23:38:49.137Z,4.44
2023-02-26T23:41:15.815Z,4.65
2023-02-26T23:43:42.728Z,4.94
2023-02-26T23:46:09.302Z,5.00
2023-02-26T23:48:36.127Z,5.36
2023-02-26T23:51:03.086Z,4.83
2023-02-26T23:53:29.716Z,4.75
2023-02-26T23:55:58.980Z,4.73
2023-02-26T23:58:26.629Z,4.79
